createdAt,value
2023-05-03T00:00:43.365Z,98769.56
2023-05-03T00:05:45.761Z,98767.59
2023-05-03T00:10:47.780Z,98770.34
2023-05-03T00:15:50.220Z,98770.97
2023-05-03T00:20:54.679Z,98767.78
2023-05-03T00:25:57.666Z,98766.25
2023-05-03T00:31:07.939Z,98772.50
2023-05-03T00:36:14.574Z,98761.84
2023-05-03T00:41:16.821Z,98761.03
2023-05-03T00:46:18.851Z,98768.53
2023-05-03T00:51:21.830Z,98766.91
2023-05-03T00:56:23.877Z,98768.16
2023-05-03T01:01:26.470Z,98761.97
2023-05-03T01:06:56.828Z,98762.78
2023-05-03T01:12:12.080Z,98758.00
2023-05-03T01:17:18.405Z,98756.91
2023-05-03T01:22:38.931Z,98765.72
2023-05-03T01:27:41.640Z,98756.31
2023-05-03T01:33:08.264Z,98763.03
2023-05-03T01:38:11.311Z,98749.19
2023-05-03T01:43:16.413Z,98755.31
2023-05-03T01:48:19.682Z,98746.16
2023-05-03T01:53:21.550Z,98746.94
2023-05-03T01:58:23.343Z,98745.88
2023-05-03T02:03:25.204Z,98739.50
2023-05-03T02:08:27.027Z,98741.59
2023-05-03T02:13:28.855Z,98743.75
2023-05-03T02:18:31.571Z,98742.69
2023-05-03T02:23:33.398Z,98751.94
2023-05-03T02:28:35.331Z,98750.00
2023-05-03T02:33:37.869Z,98747.91
2023-05-03T02:38:39.697Z,98758.50
2023-05-03T02:43:41.595Z,98757.69
2023-05-03T02:48:43.727Z,98752.31
2023-05-03T02:53:46.615Z,98753.63
2023-05-03T02:58:48.589Z,98751.72
2023-05-03T03:03:50.720Z,98750.94
2023-05-03T03:08:52.878Z,98756.72
2023-05-03T03:13:55.018Z,98769.06
2023-05-03T03:19:02.109Z,98767.03
2023-05-03T03:24:04.833Z,98775.03
2023-05-03T03:29:06.857Z,98770.84
2023-05-03T03:34:09.673Z,98778.31
2023-05-03T03:39:11.792Z,98785.88
2023-05-03T03:44:14.768Z,98783.66
2023-05-03T03:49:16.928Z,98798.78
2023-05-03T03:54:19.006Z,98801.44
2023-05-03T03:59:25.134Z,98807.97
2023-05-03T04:04:27.192Z,98804.78
2023-05-03T04:09:30.799Z,98823.06
2023-05-03T04:14:32.807Z,98823.75
2023-05-03T04:19:35.393Z,98829.91
2023-05-03T04:24:39.766Z,98828.16
2023-05-03T04:29:43.929Z,98831.56
2023-05-03T04:34:49.089Z,98847.06
2023-05-03T04:39:52.636Z,98842.94
2023-05-03T04:44:55.497Z,98846.78
2023-05-03T04:49:57.796Z,98855.06
2023-05-03T04:54:59.766Z,98850.50
2023-05-03T05:00:02.515Z,98858.72
2023-05-03T05:05:04.912Z,98866.56
2023-05-03T05:10:08.871Z,98867.34
2023-05-03T05:15:11.479Z,98871.56
2023-05-03T05:20:15.273Z,98878.50
2023-05-03T05:25:22.230Z,98880.28
2023-05-03T05:30:25.081Z,98879.56
2023-05-03T05:35:27.515Z,98882.81
2023-05-03T05:40:29.500Z,98888.53
2023-05-03T05:45:34.551Z,98884.38
2023-05-03T05:50:37.847Z,98890.66
2023-05-03T05:55:44.334Z,98898.09
2023-05-03T06:00:49.152Z,98904.41
2023-05-03T06:05:52.194Z,98905.06
2023-05-03T06:10:55.411Z,98905.38
2023-05-03T06:15:58.709Z,98900.78
2023-05-03T06:21:00.996Z,98904.03
2023-05-03T06:26:02.846Z,98899.25
2023-05-03T06:31:05.200Z,98906.16
2023-05-03T06:36:08.270Z,98906.81
2023-05-03T06:41:11.854Z,98902.31
2023-05-03T06:46:13.937Z,98904.38
2023-05-03T06:51:15.916Z,98908.03
2023-05-03T06:56:17.995Z,98911.31
2023-05-03T07:01:20.798Z,98907.63
2023-05-03T07:06:25.497Z,98903.59
2023-05-03T07:11:27.410Z,98899.78
2023-05-03T07:16:29.332Z,98898.06
2023-05-03T07:21:31.764Z,98907.63
2023-05-03T07:26:34.416Z,98903.25
2023-05-03T07:31:36.868Z,98907.13
2023-05-03T07:36:39.566Z,98893.41
2023-05-03T07:41:41.399Z,98890.13
2023-05-03T07:46:43.405Z,98894.53
2023-05-03T07:51:45.256Z,98895.47
2023-05-03T07:56:47.067Z,98894.00
2023-05-03T08:01:48.970Z,98885.63
2023-05-03T08:06:50.989Z,98895.44
2023-05-03T08:11:52.917Z,98894.19
2023-05-03T08:16:55.596Z,98888.66
2023-05-03T08:21:58.367Z,98901.75
2023-05-03T08:27:00.248Z,98891.78
2023-05-03T08:32:02.367Z,98887.94
2023-05-03T08:37:05.468Z,98893.28
2023-05-03T08:42:10.388Z,98895.09
2023-05-03T08:47:15.048Z,98892.78
2023-05-03T08:52:18.364Z,98891.13
2023-05-03T08:57:23.816Z,98883.66
2023-05-03T09:02:25.800Z,98887.25
2023-05-03T09:07:27.730Z,98881.75
2023-05-03T09:12:41.410Z,98876.75
2023-05-03T09:17:43.601Z,98880.28
2023-05-03T09:22:52.573Z,98883.97
2023-05-03T09:28:01.952Z,98881.56
2023-05-03T09:33:04.781Z,98883.94
2023-05-03T09:38:07.251Z,98882.31
2023-05-03T09:43:11.454Z,98869.88
2023-05-03T09:48:13.969Z,98870.81
2023-05-03T09:53:18.806Z,98873.53
2023-05-03T09:58:24.880Z,98873.56
2023-05-03T10:03:34.794Z,98863.66
2023-05-03T10:08:49.719Z,98860.56
2023-05-03T10:13:52.014Z,98862.84
2023-05-03T10:19:07.176Z,98850.28
2023-05-03T10:24:16.239Z,98847.47
2023-05-03T10:29:34.536Z,98849.53
2023-05-03T10:34:39.737Z,98849.34
2023-05-03T10:39:46.691Z,98832.84
2023-05-03T10:44:55.428Z,98834.22
2023-05-03T10:50:15.609Z,98834.38
2023-05-03T10:55:21.042Z,98834.84
2023-05-03T11:00:24.748Z,98830.16
2023-05-03T11:05:28.627Z,98832.41
2023-05-03T11:10:30.694Z,98833.75
2023-05-03T11:15:33.275Z,98835.75
2023-05-03T11:20:38.635Z,98848.16
2023-05-03T11:25:43.358Z,98845.38
2023-05-03T11:30:46.855Z,98845.25
2023-05-03T11:35:48.814Z,98839.28
2023-05-03T11:40:50.717Z,98851.22
2023-05-03T11:45:56.469Z,98837.44
2023-05-03T11:50:58.430Z,98837.16
2023-05-03T11:56:01.362Z,98842.41
2023-05-03T12:01:03.781Z,98841.28
2023-05-03T12:06:06.568Z,98842.81
2023-05-03T12:11:09.867Z,98849.88
2023-05-03T12:16:15.643Z,98844.38
2023-05-03T12:26:25.733Z,98829.56
2023-05-03T12:31:29.496Z,98816.88
2023-05-03T12:36:37.445Z,98818.94
2023-05-03T12:42:06.135Z,98820.13
2023-05-03T12:47:02.086Z,98814.47
2023-05-03T12:52:32.010Z,98820.28
2023-05-03T12:57:30.235Z,98813.72
2023-05-03T13:07:42.502Z,98814.94
2023-05-03T13:12:45.817Z,98812.50
2023-05-03T13:17:49.545Z,98795.31
2023-05-03T13:22:52.705Z,98796.63
2023-05-03T13:27:54.744Z,98784.72
2023-05-03T13:32:56.770Z,98780.22
2023-05-03T13:37:58.657Z,98787.38
2023-05-03T13:43:00.607Z,98786.53
2023-05-03T13:48:16.266Z,98786.25
2023-05-03T13:53:20.892Z,98771.91
2023-05-03T13:58:22.751Z,98766.72
2023-05-03T14:03:24.912Z,98764.75
2023-05-03T14:08:26.921Z,98752.09
2023-05-03T14:13:32.913Z,98753.22
2023-05-03T14:18:39.368Z,98752.97
2023-05-03T14:23:41.330Z,98742.34
2023-05-03T14:28:43.704Z,98739.13
2023-05-03T14:33:45.540Z,98739.50
2023-05-03T14:38:47.858Z,98753.34
2023-05-03T14:43:49.676Z,98735.19
2023-05-03T14:48:51.828Z,98733.56
2023-05-03T14:53:53.649Z,98736.09
2023-05-03T14:58:55.469Z,98734.19
2023-05-03T15:03:57.351Z,98742.75
2023-05-03T15:08:59.737Z,98751.94
2023-05-03T15:14:01.678Z,98741.00
2023-05-03T15:19:03.678Z,98738.00
2023-05-03T15:24:05.794Z,98735.09
2023-05-03T15:29:07.631Z,98724.66
2023-05-03T15:34:11.319Z,98717.84
2023-05-03T15:39:13.216Z,98717.19
2023-05-03T15:44:16.265Z,98712.81
2023-05-03T15:49:18.148Z,98702.56
2023-05-03T15:54:19.947Z,98707.97
2023-05-03T15:59:21.851Z,98707.38
2023-05-03T16:04:25.219Z,98705.91
2023-05-03T16:09:28.773Z,98701.47
2023-05-03T16:14:30.703Z,98706.50
2023-05-03T16:19:32.900Z,98690.66
2023-05-03T16:24:35.077Z,98683.53
2023-05-03T16:29:37.691Z,98677.00
2023-05-03T16:34:39.560Z,98675.59
2023-05-03T16:39:41.413Z,98659.56
2023-05-03T16:44:43.346Z,98663.22
2023-05-03T16:49:45.184Z,98664.66
2023-05-03T16:54:47.103Z,98651.47
2023-05-03T16:59:48.954Z,98657.81
2023-05-03T17:04:50.889Z,98658.00
2023-05-03T17:09:52.734Z,98649.06
2023-05-03T17:14:55.169Z,98654.41
2023-05-03T17:19:57.364Z,98651.16
2023-05-03T17:24:59.620Z,98660.78
2023-05-03T17:30:01.555Z,98659.59
2023-05-03T17:35:03.541Z,98662.19
2023-05-03T17:40:09.114Z,98661.34
2023-05-03T17:45:11.736Z,98659.00
2023-05-03T17:50:13.737Z,98658.66
2023-05-03T17:55:18.106Z,98661.41
2023-05-03T18:00:21.542Z,98671.06
2023-05-03T18:05:23.712Z,98676.47
2023-05-03T18:10:25.782Z,98677.03
2023-05-03T18:15:27.653Z,98675.84
2023-05-03T18:20:29.572Z,98675.34
2023-05-03T18:25:31.699Z,98681.97
2023-05-03T18:30:33.559Z,98681.91
2023-05-03T18:35:35.380Z,98687.03
2023-05-03T18:40:37.286Z,98677.56
2023-05-03T18:45:40.097Z,98687.63
2023-05-03T18:50:44.147Z,98687.94
2023-05-03T18:55:46.256Z,98687.59
2023-05-03T19:00:48.190Z,98697.06
2023-05-03T19:05:50.097Z,98698.31
2023-05-03T19:10:51.968Z,98701.34
2023-05-03T19:15:53.773Z,98715.81
2023-05-03T19:20:56.623Z,98708.97
2023-05-03T19:25:58.660Z,98704.59
2023-05-03T19:31:06.804Z,98707.81
2023-05-03T19:36:13.077Z,98703.38
2023-05-03T19:41:14.857Z,98711.53
2023-05-03T19:46:19.888Z,98706.06
2023-05-03T19:51:21.785Z,98708.44
2023-05-03T19:56:25.148Z,98716.09
2023-05-03T20:01:27.627Z,98719.59
2023-05-03T20:06:29.460Z,98714.47
2023-05-03T20:11:31.387Z,98709.72
2023-05-03T20:16:38.788Z,98716.47
2023-05-03T20:21:40.937Z,98711.47
2023-05-03T20:26:42.781Z,98708.94
2023-05-03T20:31:46.573Z,98703.56
2023-05-03T20:36:51.681Z,98713.94
2023-05-03T20:41:53.505Z,98711.72
2023-05-03T20:46:55.426Z,98704.72
2023-05-03T20:51:57.315Z,98689.38
2023-05-03T20:56:59.198Z,98693.06
2023-05-03T21:02:01.768Z,98683.44
2023-05-03T21:07:04.128Z,98683.22
2023-05-03T21:12:06.186Z,98682.28
2023-05-03T21:17:08.905Z,98681.00
2023-05-03T21:22:11.779Z,98693.91
2023-05-03T21:27:13.650Z,98688.25
2023-05-03T21:32:15.473Z,98681.59
2023-05-03T21:37:17.419Z,98688.84
2023-05-03T21:42:19.206Z,98682.72
2023-05-03T21:47:21.109Z,98675.44
2023-05-03T21:52:23.243Z,98675.44
2023-05-03T21:57:28.414Z,98677.88
2023-05-03T22:02:30.354Z,98680.31
2023-05-03T22:07:32.206Z,98671.50
2023-05-03T22:12:34.579Z,98668.53
2023-05-03T22:17:36.552Z,98669.22
2023-05-03T22:22:38.409Z,98666.22
2023-05-03T22:27:40.201Z,98664.00
2023-05-03T22:32:42.124Z,98669.69
2023-05-03T22:37:43.964Z,98675.28
2023-05-03T22:42:45.792Z,98676.63
2023-05-03T22:47:47.669Z,98665.75
2023-05-03T22:52:49.608Z,98668.56
2023-05-03T22:57:51.676Z,98663.81
2023-05-03T23:02:53.717Z,98653.97
2023-05-03T23:07:55.705Z,98661.44
2023-05-03T23:12:57.666Z,98652.28
2023-05-03T23:17:59.521Z,98651.53
2023-05-03T23:23:01.335Z,98653.41
2023-05-03T23:28:02.971Z,98653.84
2023-05-03T23:33:05.131Z,98642.47
2023-05-03T23:38:07.285Z,98639.78
2023-05-03T23:43:09.002Z,98646.28
2023-05-03T23:48:11.033Z,98645.16
2023-05-03T23:53:12.721Z,98636.84
2023-05-03T23:58:14.321Z,98624.84
